Time;durP1;ratioP1;P1;durP2;ratioP2;P2;SDS_P1;SDS_P2;PMS_P1;PMS_P2;Temp;Humidity;BMP_temperature;BMP_pressure;BME280_temperature;BME280_humidity;BME280_pressure;Samples;Min_cycle;Max_cycle;Signal;HPM_P1;HPM_P2
2023/10/24 03:31:19;;;;;;;3.10;2.78;;;10.90;99.90;;;;;;5719083;23;20257;-66
2023/10/24 03:33:46;;;;;;;2.88;2.20;;;10.90;99.90;;;;;;4970472;28;20216;-66
2023/10/24 03:36:13;;;;;;;2.70;2.50;;;10.90;99.90;;;;;;4970954;28;20213;-66
2023/10/24 03:38:40;;;;;;;2.95;2.40;;;10.90;99.90;;;;;;4971366;28;20630;-66
2023/10/24 03:41:07;;;;;;;3.42;3.00;;;10.90;99.90;;;;;;4971485;28;20227;-66
2023/10/24 03:43:34;;;;;;;2.92;2.63;;;10.90;99.90;;;;;;4971498;28;20204;-67
2023/10/24 03:46:06;;;;;;;2.40;2.20;;;10.90;99.90;;;;;;4971012;28;20229;-67
2023/10/24 03:48:34;;;;;;;3.30;2.70;;;10.90;99.90;;;;;;4971404;28;20637;-66
2023/10/24 03:51:01;;;;;;;2.65;2.45;;;10.90;99.90;;;;;;4971396;28;20230;-67
2023/10/24 03:53:28;;;;;;;2.70;2.50;;;10.90;99.90;;;;;;4971311;28;20206;-67
2023/10/24 03:55:59;;;;;;;2.70;2.40;;;10.90;99.90;;;;;;4970919;28;20244;-67
2023/10/24 03:58:27;;;;;;;3.58;2.20;;;10.90;99.90;;;;;;4971199;28;20208;-67
2023/10/24 04:00:54;;;;;;;3.45;3.15;;;10.80;99.90;;;;;;4971132;28;20237;-67
2023/10/24 04:03:21;;;;;;;2.10;2.00;;;10.80;99.90;;;;;;4971030;28;20580;-66
2023/10/24 04:05:49;;;;;;;2.65;2.25;;;10.80;99.90;;;;;;4974556;28;20208;-67
2023/10/24 04:08:16;;;;;;;4.20;2.60;;;10.80;99.90;;;;;;4975083;28;20204;-67
2023/10/24 04:10:43;;;;;;;3.28;2.97;;;10.80;99.90;;;;;;4975140;28;20236;-67
2023/10/24 04:13:09;;;;;;;3.85;3.20;;;10.70;99.90;;;;;;4975369;28;20206;-66
2023/10/24 04:15:36;;;;;;;2.78;2.45;;;10.70;99.90;;;;;;4974659;28;20205;-67
2023/10/24 04:18:04;;;;;;;2.67;2.47;;;10.70;99.90;;;;;;4974901;28;20219;-67
2023/10/24 04:20:31;;;;;;;3.25;2.85;;;10.80;99.90;;;;;;4974791;28;20249;-67
2023/10/24 04:23:03;;;;;;;2.30;2.10;;;10.80;99.90;;;;;;4975370;28;20218;-66
2023/10/24 04:25:30;;;;;;;3.20;2.60;;;10.80;99.90;;;;;;4974911;28;20232;-65
2023/10/24 04:27:58;;;;;;;2.90;2.60;;;10.90;99.90;;;;;;4975342;28;20268;-66
2023/10/24 04:30:26;;;;;;;4.80;2.90;;;10.90;99.90;;;;;;4975227;28;20208;-66
2023/10/24 04:32:53;;;;;;;3.40;3.00;;;10.90;99.90;;;;;;4974425;28;20217;-66
2023/10/24 04:35:20;;;;;;;2.80;2.60;;;10.90;99.90;;;;;;4973639;28;20917;-65
2023/10/24 04:37:47;;;;;;;3.78;2.95;;;10.90;99.90;;;;;;4975146;28;20213;-66
2023/10/24 04:40:15;;;;;;;3.15;2.85;;;11.00;99.90;;;;;;4975134;28;20224;-65
2023/10/24 04:42:42;;;;;;;5.10;3.40;;;10.90;99.90;;;;;;4975026;28;20232;-65
2023/10/24 04:45:09;;;;;;;3.75;3.10;;;10.90;99.90;;;;;;4974692;28;20217;-65
2023/10/24 04:47:36;;;;;;;4.25;3.33;;;10.90;99.90;;;;;;4974727;28;20215;-66
2023/10/24 04:50:03;;;;;;;3.47;3.17;;;11.00;99.90;;;;;;4975064;28;20208;-65
2023/10/24 04:52:30;;;;;;;4.22;3.10;;;11.00;99.90;;;;;;4974777;28;20233;-66
2023/10/24 04:54:57;;;;;;;3.88;3.13;;;11.00;99.90;;;;;;4974585;28;20708;-66
2023/10/24 04:57:25;;;;;;;3.08;2.75;;;10.90;99.90;;;;;;4974367;28;20216;-66
2023/10/24 04:59:51;;;;;;;5.53;3.65;;;10.90;99.90;;;;;;4974702;28;20229;-66
2023/10/24 05:02:18;;;;;;;3.65;3.15;;;10.90;99.90;;;;;;4974795;28;20237;-65
2023/10/24 05:04:45;;;;;;;4.75;3.30;;;10.90;99.90;;;;;;4974538;28;20238;-66
2023/10/24 05:07:11;;;;;;;3.50;3.20;;;10.90;99.90;;;;;;4974715;28;20569;-65
2023/10/24 05:09:38;;;;;;;5.53;4.18;;;10.90;99.90;;;;;;4973801;28;20202;-65
2023/10/24 05:12:06;;;;;;;3.63;3.22;;;10.90;99.90;;;;;;4974632;28;20232;-65
2023/10/24 05:14:34;;;;;;;3.90;3.50;;;10.80;99.90;;;;;;4973919;28;20631;-65
2023/10/24 05:17:01;;;;;;;4.32;3.28;;;10.80;99.90;;;;;;4974287;28;20220;-65
2023/10/24 05:19:27;;;;;;;3.75;3.28;;;10.80;99.90;;;;;;4974196;28;20213;-65
2023/10/24 05:21:54;;;;;;;4.10;3.28;;;10.80;99.90;;;;;;4974404;28;20604;-65
2023/10/24 05:24:21;;;;;;;4.10;3.40;;;10.80;99.90;;;;;;5118011;23;20238;-66
2023/10/24 05:26:47;;;;;;;3.67;3.30;;;10.80;99.90;;;;;;4973619;28;20219;-67
2023/10/24 05:29:14;;;;;;;3.67;3.22;;;10.80;99.90;;;;;;4974143;28;20589;-66
2023/10/24 05:31:42;;;;;;;3.33;3.03;;;10.80;99.90;;;;;;4973892;28;20226;-67
2023/10/24 05:34:09;;;;;;;8.35;3.20;;;10.70;99.90;;;;;;4974510;28;20212;-66
2023/10/24 05:36:35;;;;;;;3.63;2.95;;;10.80;99.90;;;;;;4974007;28;20216;-66
2023/10/24 05:39:02;;;;;;;3.40;3.10;;;10.70;99.90;;;;;;4974325;28;20216;-66
2023/10/24 05:41:29;;;;;;;4.55;3.03;;;10.70;99.90;;;;;;4974121;28;20255;-66
2023/10/24 05:43:56;;;;;;;3.92;3.10;;;10.70;99.90;;;;;;4974217;28;20693;-66
2023/10/24 05:46:23;;;;;;;3.63;3.33;;;10.80;99.90;;;;;;4974061;28;20209;-66
2023/10/24 05:48:51;;;;;;;3.40;3.08;;;10.70;99.90;;;;;;4974171;28;20212;-66
2023/10/24 05:51:22;;;;;;;4.07;3.78;;;10.70;99.90;;;;;;4974159;28;20697;-66
2023/10/24 05:53:49;;;;;;;3.83;3.20;;;10.70;99.90;;;;;;4974192;28;20259;-66
2023/10/24 05:56:16;;;;;;;3.90;3.28;;;10.70;99.90;;;;;;4973838;28;20234;-66
2023/10/24 05:58:43;;;;;;;3.55;2.67;;;10.70;99.90;;;;;;4973267;28;20216;-66
2023/10/24 06:01:09;;;;;;;4.82;2.97;;;10.70;99.90;;;;;;4973707;28;20236;-66
2023/10/24 06:03:36;;;;;;;3.25;2.75;;;10.70;99.90;;;;;;4973739;28;20209;-66
2023/10/24 06:06:04;;;;;;;2.38;2.17;;;10.70;99.90;;;;;;4973603;28;20213;-66
2023/10/24 06:08:31;;;;;;;3.35;3.05;;;10.70;99.90;;;;;;4973697;28;20215;-66
2023/10/24 06:10:59;;;;;;;3.20;2.90;;;10.70;99.90;;;;;;4972957;28;20229;-67
2023/10/24 06:13:26;;;;;;;5.15;3.20;;;10.70;99.90;;;;;;4971689;28;20219;-66
2023/10/24 06:15:53;;;;;;;3.50;3.00;;;10.70;99.90;;;;;;4972544;28;20204;-66
2023/10/24 06:18:20;;;;;;;3.63;2.72;;;10.80;99.90;;;;;;4973582;28;20205;-66
2023/10/24 06:20:47;;;;;;;4.30;2.65;;;10.90;99.90;;;;;;4973321;28;20236;-66
2023/10/24 06:23:15;;;;;;;4.28;3.10;;;11.00;99.90;;;;;;4973542;28;20681;-66
2023/10/24 06:25:43;;;;;;;3.55;2.97;;;11.10;99.90;;;;;;4972957;28;20210;-66
2023/10/24 06:28:10;;;;;;;6.05;3.42;;;11.20;99.90;;;;;;4972843;28;20289;-66
2023/10/24 06:30:37;;;;;;;8.35;3.08;;;11.30;99.90;;;;;;4973177;28;20624;-66
2023/10/24 06:33:03;;;;;;;3.28;2.97;;;11.40;99.90;;;;;;4973244;28;20671;-67
2023/10/24 06:35:30;;;;;;;3.95;3.20;;;11.50;99.90;;;;;;4972854;28;20221;-66
2023/10/24 06:37:57;;;;;;;3.53;3.15;;;11.50;99.90;;;;;;4973052;28;20209;-67
2023/10/24 06:40:25;;;;;;;3.53;3.20;;;11.60;99.90;;;;;;4973100;28;20775;-67
2023/10/24 06:42:52;;;;;;;4.78;3.15;;;11.60;99.90;;;;;;4972873;28;20217;-67
2023/10/24 06:45:18;;;;;;;4.35;3.00;;;11.70;99.90;;;;;;4972840;28;20205;-67
2023/10/24 06:47:45;;;;;;;3.72;3.30;;;11.80;99.90;;;;;;4972807;28;20221;-67
2023/10/24 06:50:12;;;;;;;3.35;3.05;;;11.80;99.90;;;;;;4973101;28;20298;-68
2023/10/24 06:52:41;;;;;;;3.95;3.33;;;11.80;99.90;;;;;;4970865;28;20583;-66
2023/10/24 06:55:09;;;;;;;4.43;3.50;;;11.80;99.90;;;;;;4972659;28;20364;-66
2023/10/24 06:57:37;;;;;;;5.88;3.53;;;11.80;99.90;;;;;;4972967;28;20203;-71
2023/10/24 07:00:05;;;;;;;6.72;3.22;;;11.70;99.90;;;;;;4972842;28;20591;-71
2023/10/24 07:02:34;;;;;;;3.70;3.15;;;11.60;99.90;;;;;;4972741;28;20688;-70
2023/10/24 07:05:01;;;;;;;3.35;3.05;;;11.50;99.90;;;;;;4972677;28;20248;-70
2023/10/24 07:07:27;;;;;;;3.05;2.58;;;11.50;99.90;;;;;;4972603;28;20633;-70
2023/10/24 07:09:54;;;;;;;5.40;2.85;;;11.40;99.90;;;;;;4972496;28;20706;-70
2023/10/24 07:12:21;;;;;;;3.08;2.78;;;11.40;99.90;;;;;;4972675;28;20232;-70
2023/10/24 07:14:52;;;;;;;4.05;2.88;;;11.40;99.90;;;;;;4972333;28;20210;-70
2023/10/24 07:17:19;;;;;;;3.00;2.80;;;11.40;99.90;;;;;;4972515;28;20736;-70
2023/10/24 07:19:45;;;;;;;3.53;2.95;;;11.30;99.90;;;;;;4972495;28;20214;-71
2023/10/24 07:22:12;;;;;;;3.58;3.28;;;11.30;99.90;;;;;;4972691;28;20224;-70
2023/10/24 07:24:39;;;;;;;2.95;2.42;;;11.30;99.90;;;;;;4969797;28;20585;-70
2023/10/24 07:27:06;;;;;;;5.18;2.88;;;11.30;99.90;;;;;;4972687;28;20212;-71
2023/10/24 07:29:32;;;;;;;3.28;2.97;;;11.30;99.90;;;;;;4972488;28;20213;-71
2023/10/24 07:32:00;;;;;;;3.30;3.00;;;11.30;99.90;;;;;;4972364;28;20231;-70
2023/10/24 07:34:29;;;;;;;3.80;3.00;;;11.30;99.90;;;;;;4972356;28;20208;-70
2023/10/24 07:36:56;;;;;;;4.78;3.35;;;11.30;99.90;;;;;;4970052;28;20207;-71
2023/10/24 07:39:23;;;;;;;5.00;3.00;;;11.20;99.90;;;;;;4971245;28;20213;-70
2023/10/24 07:41:51;;;;;;;4.25;2.75;;;11.20;99.90;;;;;;4972363;28;20321;-70
2023/10/24 07:44:20;;;;;;;5.30;3.10;;;11.20;99.90;;;;;;4972616;28;20218;-70
2023/10/24 07:46:47;;;;;;;3.53;2.90;;;11.20;99.90;;;;;;4972014;28;20206;-71
2023/10/24 07:49:15;;;;;;;3.10;2.70;;;11.20;99.90;;;;;;4970869;28;20210;-70
2023/10/24 07:51:42;;;;;;;4.05;2.65;;;11.20;99.90;;;;;;4971959;28;20225;-70
2023/10/24 07:54:10;;;;;;;3.25;2.95;;;11.30;99.90;;;;;;4968820;28;20215;-70
2023/10/24 07:56:37;;;;;;;3.75;2.90;;;11.30;99.90;;;;;;4971781;28;20217;-70
2023/10/24 07:59:04;;;;;;;2.95;2.65;;;11.30;99.90;;;;;;4971717;28;20397;-70
2023/10/24 08:01:31;;;;;;;4.47;2.65;;;11.30;99.90;;;;;;4971853;28;20225;-70
2023/10/24 08:03:58;;;;;;;7.60;3.33;;;11.30;99.90;;;;;;4961815;28;20596;-70
2023/10/24 08:06:27;;;;;;;6.85;2.70;;;11.30;99.90;;;;;;4965327;28;20272;-70
2023/10/24 08:08:54;;;;;;;3.42;2.60;;;11.30;99.90;;;;;;4968368;28;20211;-70
2023/10/24 08:11:21;;;;;;;3.80;3.50;;;11.30;99.90;;;;;;4971966;28;20607;-70
2023/10/24 08:13:47;;;;;;;3.30;3.00;;;11.40;99.90;;;;;;4971796;28;20595;-70
2023/10/24 08:16:14;;;;;;;3.50;3.03;;;11.30;99.90;;;;;;4971841;28;20230;-70
2023/10/24 08:18:41;;;;;;;4.00;2.92;;;11.40;99.90;;;;;;4971726;28;20662;-70
2023/10/24 08:21:08;;;;;;;3.92;3.40;;;11.40;99.90;;;;;;4971906;28;20230;-70
2023/10/24 08:23:36;;;;;;;5.15;3.50;;;11.40;99.90;;;;;;4971600;28;20208;-70
2023/10/24 08:26:03;;;;;;;3.88;3.55;;;11.40;99.90;;;;;;4966898;28;20214;-70
2023/10/24 08:28:30;;;;;;;3.47;3.15;;;11.40;99.90;;;;;;4971684;28;20218;-70
2023/10/24 08:30:57;;;;;;;4.40;3.28;;;11.50;99.90;;;;;;4969300;28;20228;-70
2023/10/24 08:33:24;;;;;;;4.45;3.22;;;11.50;99.90;;;;;;4969258;28;20217;-71
2023/10/24 08:35:51;;;;;;;4.40;2.60;;;11.50;99.90;;;;;;4964194;28;20668;-71
2023/10/24 08:38:17;;;;;;;3.08;2.53;;;11.50;99.90;;;;;;4969023;28;20219;-70
2023/10/24 08:40:47;;;;;;;6.72;3.00;;;11.60;99.90;;;;;;4968691;28;20231;-70
2023/10/24 08:43:15;;;;;;;2.72;2.53;;;11.60;99.90;;;;;;4969110;28;20204;-71
2023/10/24 08:45:43;;;;;;;3.10;2.78;;;11.70;99.90;;;;;;4968593;28;20241;-70
2023/10/24 08:48:11;;;;;;;3.33;3.00;;;11.70;99.90;;;;;;4969290;28;20205;-70
2023/10/24 08:50:40;;;;;;;4.03;2.70;;;11.70;99.90;;;;;;4967436;28;20256;-71
2023/10/24 08:53:07;;;;;;;2.63;2.30;;;11.70;99.90;;;;;;4968353;28;20209;-70
2023/10/24 08:55:36;;;;;;;2.78;2.20;;;11.80;99.90;;;;;;4972105;28;20767;-70
2023/10/24 08:58:10;;;;;;;2.80;2.15;;;11.80;99.90;;;;;;4972442;28;20232;-70
2023/10/24 09:00:39;;;;;;;2.28;2.08;;;11.80;99.90;;;;;;4972199;28;20637;-71
2023/10/24 09:03:06;;;;;;;3.00;2.63;;;11.80;99.90;;;;;;4972195;28;20218;-70
2023/10/24 09:05:34;;;;;;;2.85;2.50;;;11.80;99.90;;;;;;4972280;28;20217;-70
2023/10/24 09:08:02;;;;;;;4.65;2.60;;;11.90;99.90;;;;;;4972051;28;20227;-70
2023/10/24 09:10:30;;;;;;;2.83;2.30;;;11.90;99.90;;;;;;4972444;28;20210;-71
2023/10/24 09:12:58;;;;;;;2.25;2.05;;;11.90;99.90;;;;;;4972099;28;20500;-70
2023/10/24 09:15:27;;;;;;;3.47;2.28;;;11.90;99.90;;;;;;4972044;28;20675;-71
2023/10/24 09:17:55;;;;;;;2.83;2.13;;;12.00;99.90;;;;;;4972181;28;20213;-70
2023/10/24 09:20:22;;;;;;;5.95;4.15;;;11.90;99.90;;;;;;4971873;28;20218;-71
2023/10/24 09:22:50;;;;;;;2.25;2.05;;;12.00;99.90;;;;;;4971595;28;20230;-71
2023/10/24 09:25:21;;;;;;;4.20;2.33;;;12.00;99.90;;;;;;4972681;28;20216;-70
2023/10/24 09:27:48;;;;;;;3.45;2.22;;;12.00;99.90;;;;;;4973503;28;20217;-70
2023/10/24 09:30:16;;;;;;;3.17;2.83;;;12.00;99.90;;;;;;4968547;28;20209;-70
2023/10/24 09:32:45;;;;;;;3.83;3.47;;;12.00;99.90;;;;;;4974250;28;20660;-70
2023/10/24 09:35:14;;;;;;;3.90;3.47;;;12.00;99.90;;;;;;4973953;28;20210;-70
2023/10/24 09:37:46;;;;;;;4.95;3.50;;;12.10;99.90;;;;;;4966512;28;20213;-70
2023/10/24 09:40:13;;;;;;;5.33;3.20;;;12.10;99.90;;;;;;4970766;28;21091;-70
2023/10/24 09:42:42;;;;;;;5.30;3.90;;;12.10;99.90;;;;;;4974314;28;20486;-70
2023/10/24 09:45:11;;;;;;;4.60;3.28;;;12.10;99.90;;;;;;5043573;23;20235;-69
2023/10/24 09:47:39;;;;;;;4.07;3.53;;;12.20;99.90;;;;;;4970148;28;20216;-69
2023/10/24 09:50:09;;;;;;;4.22;2.85;;;12.10;99.90;;;;;;4973580;28;20209;-69
2023/10/24 09:52:37;;;;;;;3.10;2.80;;;12.10;99.90;;;;;;4973996;28;20226;-69
2023/10/24 09:55:04;;;;;;;4.53;3.40;;;12.20;99.90;;;;;;4973542;28;20221;-70
2023/10/24 09:57:33;;;;;;;3.50;2.40;;;12.20;99.90;;;;;;4973797;28;20215;-69
2023/10/24 10:00:00;;;;;;;4.00;3.00;;;12.20;99.90;;;;;;4973648;28;20205;-70
2023/10/24 10:02:27;;;;;;;3.55;2.58;;;12.20;99.90;;;;;;4972746;28;20854;-70
2023/10/24 10:04:54;;;;;;;3.20;2.75;;;12.30;99.90;;;;;;4973551;28;20207;-69
2023/10/24 10:07:24;;;;;;;3.75;2.70;;;12.30;99.90;;;;;;4973274;28;20216;-69
2023/10/24 10:09:52;;;;;;;3.83;2.33;;;12.30;99.90;;;;;;4973555;28;20725;-68
2023/10/24 10:12:20;;;;;;;2.90;2.23;;;12.30;99.90;;;;;;4973698;28;20221;-70
2023/10/24 10:15:04;;;;;;;8.98;2.90;;;12.30;99.90;;;;;;4973669;28;20520;-69
2023/10/24 10:17:38;;;;;;;5.55;2.25;;;12.40;99.90;;;;;;4972648;28;20240;-69
2023/10/24 10:20:26;;;;;;;2.35;1.95;;;12.40;99.90;;;;;;4973153;28;20595;-69
2023/10/24 10:23:10;;;;;;;1.85;1.75;;;12.40;99.90;;;;;;4970638;28;20223;-69
2023/10/24 10:25:55;;;;;;;2.80;1.95;;;12.40;99.90;;;;;;4973233;28;20568;-69
2023/10/24 10:28:32;;;;;;;1.85;1.75;;;12.40;99.90;;;;;;4971362;28;20203;-70
2023/10/24 10:31:07;;;;;;;1.85;1.63;;;12.40;99.90;;;;;;4973030;28;20278;-69
2023/10/24 10:33:34;;;;;;;3.08;2.08;;;12.40;99.90;;;;;;4973275;28;20215;-70
2023/10/24 10:36:03;;;;;;;2.30;2.10;;;12.50;99.90;;;;;;4972692;28;20211;-69
2023/10/24 10:38:39;;;;;;;3.13;2.53;;;12.50;99.90;;;;;;4973289;28;20233;-70
2023/10/24 10:41:34;;;;;;;3.38;2.88;;;12.50;99.90;;;;;;4972501;28;20721;-69
2023/10/24 10:44:05;;;;;;;1.55;1.45;;;12.50;99.90;;;;;;4970670;28;20775;-70
2023/10/24 10:46:33;;;;;;;2.53;1.85;;;12.50;99.90;;;;;;4970673;28;20589;-69
2023/10/24 10:49:05;;;;;;;2.20;2.00;;;12.60;99.90;;;;;;4970027;28;20266;-69
2023/10/24 10:51:34;;;;;;;1.95;1.65;;;12.60;99.90;;;;;;4969983;28;20776;-69
2023/10/24 10:54:17;;;;;;;3.73;2.20;;;12.60;99.90;;;;;;4970058;28;20217;-69
2023/10/24 10:56:47;;;;;;;2.17;1.85;;;12.50;99.90;;;;;;4965756;28;20474;-69
2023/10/24 10:59:34;;;;;;;4.15;1.90;;;12.50;99.90;;;;;;4970885;28;20244;-69
2023/10/24 11:02:16;;;;;;;3.20;2.50;;;12.50;99.90;;;;;;4969866;28;20225;-69
2023/10/24 11:04:43;;;;;;;2.38;1.70;;;12.50;99.90;;;;;;4965378;28;20222;-70
2023/10/24 11:07:10;;;;;;;2.30;2.10;;;12.50;99.90;;;;;;4969849;28;20237;-69
2023/10/24 11:09:40;;;;;;;1.92;1.83;;;12.50;99.90;;;;;;4969708;28;20480;-70
2023/10/24 11:12:26;;;;;;;2.95;2.08;;;12.50;99.90;;;;;;4969254;28;20223;-69
2023/10/24 11:15:25;;;;;;;2.17;1.80;;;12.50;99.90;;;;;;4966661;28;20222;-69
2023/10/24 11:17:53;;;;;;;1.90;1.70;;;12.50;99.90;;;;;;4966667;28;20206;-70
2023/10/24 11:20:20;;;;;;;1.52;1.35;;;12.50;99.90;;;;;;4969486;28;20222;-69
2023/10/24 11:22:47;;;;;;;3.30;2.08;;;12.50;99.90;;;;;;4969203;28;20230;-69
2023/10/24 11:25:16;;;;;;;2.65;1.70;;;12.50;99.90;;;;;;4969194;28;20707;-70
2023/10/24 11:27:43;;;;;;;2.45;1.75;;;12.50;99.90;;;;;;4969761;28;20310;-69
2023/10/24 11:30:11;;;;;;;2.53;2.20;;;12.50;99.90;;;;;;4969587;28;20214;-69
2023/10/24 11:32:38;;;;;;;2.35;1.50;;;12.50;99.90;;;;;;4969380;28;20292;-70
2023/10/24 11:35:07;;;;;;;2.15;1.92;;;12.50;99.90;;;;;;4969878;28;20624;-69
2023/10/24 11:37:33;;;;;;;1.95;1.63;;;12.50;99.90;;;;;;4969528;28;20572;-68
2023/10/24 11:40:00;;;;;;;3.20;2.07;;;12.50;99.90;;;;;;4969393;28;20572;-69
2023/10/24 11:42:29;;;;;;;3.63;2.03;;;12.50;99.90;;;;;;4969040;28;20504;-70
2023/10/24 11:44:55;;;;;;;2.90;2.05;;;12.50;99.90;;;;;;4968940;28;20474;-70
2023/10/24 11:47:22;;;;;;;3.05;2.40;;;12.50;99.90;;;;;;4967048;28;20211;-68
2023/10/24 11:49:50;;;;;;;1.52;1.35;;;12.50;99.90;;;;;;4969328;28;20778;-70
2023/10/24 11:52:16;;;;;;;2.40;2.20;;;12.60;99.90;;;;;;4969277;28;20234;-70
2023/10/24 11:54:51;;;;;;;1.90;1.80;;;12.50;99.90;;;;;;4969259;28;20476;-69
2023/10/24 11:57:18;;;;;;;1.80;1.70;;;12.60;99.90;;;;;;4965996;28;20594;-70
2023/10/24 11:59:48;;;;;;;2.10;1.90;;;12.60;99.90;;;;;;4969573;28;20221;-69
2023/10/24 12:02:16;;;;;;;2.00;1.80;;;12.50;99.90;;;;;;4969194;28;20227;-70
2023/10/24 12:04:49;;;;;;;2.33;2.13;;;12.60;99.90;;;;;;4969500;28;20214;-69
2023/10/24 12:07:15;;;;;;;2.42;1.80;;;12.60;99.90;;;;;;4969377;28;20217;-67
2023/10/24 12:09:42;;;;;;;2.03;1.50;;;12.60;99.90;;;;;;4969615;28;20634;-70
2023/10/24 12:12:12;;;;;;;2.53;1.60;;;12.60;99.90;;;;;;4970106;28;20481;-70
2023/10/24 12:14:43;;;;;;;2.00;1.80;;;12.60;99.90;;;;;;4963829;28;20911;-70
2023/10/24 12:17:14;;;;;;;2.43;1.50;;;12.60;99.90;;;;;;4969189;28;20210;-68
2023/10/24 12:19:42;;;;;;;2.85;2.03;;;12.60;99.90;;;;;;4962122;28;20478;-69
2023/10/24 12:22:08;;;;;;;2.88;1.75;;;12.60;99.90;;;;;;4970140;28;20611;-70
2023/10/24 12:24:35;;;;;;;1.70;1.60;;;12.60;99.90;;;;;;4970952;28;20750;-69
2023/10/24 12:27:02;;;;;;;5.68;1.60;;;12.60;99.90;;;;;;4975166;28;20237;-68
2023/10/24 12:29:28;;;;;;;1.60;1.50;;;12.60;99.90;;;;;;4975444;28;20213;-70
2023/10/24 12:31:55;;;;;;;1.60;1.50;;;12.70;99.90;;;;;;4974516;28;20226;-70
2023/10/24 12:34:23;;;;;;;1.90;1.70;;;12.70;99.90;;;;;;4975020;28;20843;-69
2023/10/24 12:36:52;;;;;;;2.72;1.73;;;12.70;99.90;;;;;;4975520;28;20844;-68
2023/10/24 12:39:21;;;;;;;2.30;1.85;;;12.70;99.90;;;;;;4975174;28;20751;-70
2023/10/24 12:41:47;;;;;;;4.38;1.92;;;12.80;99.90;;;;;;4972860;28;20603;-69
2023/10/24 12:44:14;;;;;;;2.53;1.60;;;12.80;99.90;;;;;;4974690;28;20214;-69
2023/10/24 12:46:41;;;;;;;2.13;1.80;;;12.80;99.90;;;;;;4974777;28;20238;-69
2023/10/24 12:49:08;;;;;;;2.63;2.10;;;12.70;99.90;;;;;;4974906;28;20211;-70
2023/10/24 12:51:36;;;;;;;2.33;2.13;;;12.70;99.90;;;;;;4974847;28;20707;-70
2023/10/24 12:54:02;;;;;;;1.85;1.48;;;12.70;99.90;;;;;;4975013;28;20204;-69
2023/10/24 12:56:29;;;;;;;1.60;1.42;;;12.70;99.90;;;;;;4974464;28;20754;-69
2023/10/24 12:58:56;;;;;;;1.47;1.23;;;12.70;99.90;;;;;;4975139;28;20215;-69
2023/10/24 13:01:24;;;;;;;6.97;1.90;;;12.80;99.90;;;;;;4974619;28;20501;-70
2023/10/24 13:03:52;;;;;;;1.57;1.47;;;12.80;99.90;;;;;;4974954;28;20490;-69
2023/10/24 13:06:19;;;;;;;2.60;1.73;;;12.80;99.90;;;;;;4974580;28;20514;-69
2023/10/24 13:08:48;;;;;;;3.90;2.23;;;12.80;99.90;;;;;;4974324;28;20462;-69
2023/10/24 13:11:15;;;;;;;2.40;2.20;;;12.80;99.90;;;;;;4976633;28;20490;-69
2023/10/24 13:13:42;;;;;;;1.83;1.42;;;12.80;99.90;;;;;;4973706;28;20218;-70
2023/10/24 13:16:14;;;;;;;2.05;1.85;;;12.80;99.90;;;;;;4974437;28;20297;-69
2023/10/24 13:18:41;;;;;;;2.03;1.83;;;12.80;99.90;;;;;;4968599;28;20333;-69
2023/10/24 13:21:08;;;;;;;2.30;1.70;;;12.70;99.90;;;;;;4974507;28;20493;-69
2023/10/24 13:23:34;;;;;;;2.30;2.10;;;12.70;99.90;;;;;;4974353;28;20490;-69
2023/10/24 13:26:03;;;;;;;1.83;1.52;;;12.60;99.90;;;;;;4974209;28;20213;-69
2023/10/24 13:28:29;;;;;;;1.90;1.77;;;12.60;99.90;;;;;;4973398;28;20216;-70
2023/10/24 13:30:56;;;;;;;2.70;2.50;;;12.60;99.90;;;;;;4974630;28;20745;-69
2023/10/24 13:33:23;;;;;;;4.72;1.80;;;12.60;99.90;;;;;;4974057;28;20500;-69
2023/10/24 13:35:50;;;;;;;1.80;1.55;;;12.60;99.90;;;;;;4972785;28;20715;-69
2023/10/24 13:38:19;;;;;;;2.05;1.80;;;12.60;99.90;;;;;;4974214;28;20216;-69
2023/10/24 13:40:45;;;;;;;2.13;1.60;;;12.60;99.90;;;;;;4974086;28;20253;-68
2023/10/24 13:43:13;;;;;;;2.22;1.75;;;12.60;99.90;;;;;;4974148;28;20231;-69
2023/10/24 13:45:40;;;;;;;1.90;1.67;;;12.60;99.90;;;;;;4966757;28;20211;-69
2023/10/24 13:48:07;;;;;;;1.85;1.65;;;12.60;99.90;;;;;;4973954;28;20963;-68
2023/10/24 13:50:33;;;;;;;5.93;2.13;;;12.60;99.90;;;;;;4973819;28;20234;-69
2023/10/24 13:53:00;;;;;;;2.40;1.50;;;12.70;99.90;;;;;;4974225;28;20207;-68
2023/10/24 13:55:27;;;;;;;1.73;1.63;;;12.70;99.90;;;;;;4973061;28;20211;-70
2023/10/24 13:57:54;;;;;;;3.20;2.00;;;12.70;99.90;;;;;;4974078;28;20215;-69
2023/10/24 14:00:22;;;;;;;1.65;1.40;;;12.70;99.90;;;;;;4973496;28;20218;-69
2023/10/24 14:02:48;;;;;;;1.70;1.60;;;12.70;99.90;;;;;;4973677;28;20231;-69
2023/10/24 14:05:15;;;;;;;1.87;1.73;;;12.70;99.90;;;;;;4973490;28;20986;-68
2023/10/24 14:07:43;;;;;;;1.67;1.58;;;12.70;99.90;;;;;;4973953;28;20959;-70
2023/10/24 14:10:10;;;;;;;1.85;1.40;;;12.70;99.90;;;;;;4973727;28;20205;-69
2023/10/24 14:12:37;;;;;;;2.23;1.70;;;12.70;99.90;;;;;;4973488;28;20245;-69
2023/10/24 14:15:04;;;;;;;1.52;1.42;;;12.70;99.90;;;;;;4973645;28;20467;-68
2023/10/24 14:17:32;;;;;;;1.92;1.60;;;12.70;99.90;;;;;;4972719;28;20213;-69
2023/10/24 14:19:59;;;;;;;1.60;1.50;;;12.70;99.90;;;;;;4973679;28;20214;-69
2023/10/24 14:22:25;;;;;;;1.30;1.20;;;12.70;99.90;;;;;;4972887;28;20494;-69
2023/10/24 14:24:52;;;;;;;2.00;1.42;;;12.70;99.90;;;;;;4973270;28;20206;-69
2023/10/24 14:27:19;;;;;;;1.50;1.40;;;12.60;99.90;;;;;;4972872;28;20309;-70
2023/10/24 14:29:46;;;;;;;1.90;1.50;;;12.60;99.90;;;;;;4973303;28;20242;-73
2023/10/24 14:32:12;;;;;;;1.83;1.50;;;12.60;99.90;;;;;;4972527;28;20254;-76
2023/10/24 14:34:40;;;;;;;1.50;1.40;;;12.60;99.90;;;;;;4965351;28;20218;-74
2023/10/24 14:37:07;;;;;;;1.85;1.55;;;12.60;99.90;;;;;;4972974;28;20207;-74
2023/10/24 14:39:34;;;;;;;2.13;1.30;;;12.70;99.90;;;;;;4972814;28;20566;-75
2023/10/24 14:42:00;;;;;;;1.60;1.50;;;12.70;99.90;;;;;;4973041;28;20483;-75
2023/10/24 14:44:27;;;;;;;1.98;1.75;;;12.60;99.90;;;;;;4972739;28;20490;-74
2023/10/24 14:46:54;;;;;;;2.20;1.67;;;12.60;99.90;;;;;;4972787;28;20621;-74
2023/10/24 14:49:22;;;;;;;1.40;1.30;;;12.60;99.90;;;;;;4972186;28;20844;-74
2023/10/24 14:51:50;;;;;;;1.65;1.33;;;12.60;99.90;;;;;;4972605;28;20507;-74
2023/10/24 14:54:17;;;;;;;3.13;1.30;;;12.60;99.90;;;;;;4972905;28;20223;-74
2023/10/24 14:56:44;;;;;;;1.45;1.35;;;12.50;99.90;;;;;;4972221;28;20500;-75
2023/10/24 14:59:12;;;;;;;1.40;1.30;;;12.50;99.90;;;;;;4972988;28;20359;-74
2023/10/24 15:01:40;;;;;;;1.45;1.35;;;12.50;99.90;;;;;;4972422;28;20234;-76
2023/10/24 15:04:11;;;;;;;1.88;1.40;;;12.50;99.90;;;;;;4972720;28;20232;-75
2023/10/24 15:06:41;;;;;;;1.80;1.13;;;12.40;99.90;;;;;;4972912;28;20221;-74
2023/10/24 15:09:10;;;;;;;1.27;1.17;;;12.40;99.90;;;;;;4972800;28;20210;-77
2023/10/24 15:11:37;;;;;;;1.30;1.20;;;12.40;99.90;;;;;;4971912;28;20580;-74
2023/10/24 15:14:04;;;;;;;1.40;1.17;;;12.40;99.90;;;;;;4972689;28;20597;-74
2023/10/24 15:16:31;;;;;;;1.85;1.30;;;12.40;99.90;;;;;;4971942;28;20222;-76
2023/10/24 15:18:58;;;;;;;1.70;1.60;;;12.40;99.90;;;;;;4971763;28;20222;-74
2023/10/24 15:21:25;;;;;;;1.38;1.27;;;12.40;99.90;;;;;;4971685;28;20236;-76
2023/10/24 15:23:52;;;;;;;2.40;1.77;;;12.50;99.90;;;;;;4960129;28;20226;-74
2023/10/24 15:26:20;;;;;;;1.73;1.63;;;12.50;99.90;;;;;;4971144;28;20716;-73
2023/10/24 15:28:47;;;;;;;1.50;1.40;;;12.50;99.90;;;;;;4971542;28;20221;-74
2023/10/24 15:31:13;;;;;;;2.07;1.70;;;12.50;99.90;;;;;;4971849;28;20619;-75
2023/10/24 15:33:40;;;;;;;1.53;1.43;;;12.50;99.90;;;;;;4970890;28;20461;-71
2023/10/24 15:36:07;;;;;;;1.63;1.48;;;12.50;99.90;;;;;;4971543;28;20461;-70
2023/10/24 15:38:34;;;;;;;1.80;1.33;;;12.50;99.90;;;;;;4971121;28;20223;-70
2023/10/24 15:41:01;;;;;;;2.03;1.70;;;12.50;99.90;;;;;;4971512;28;20257;-70
2023/10/24 15:43:29;;;;;;;1.25;1.10;;;12.50;99.90;;;;;;4970969;28;20233;-70
2023/10/24 15:46:16;;;;;;;1.48;1.30;;;12.40;99.90;;;;;;4970509;28;20229;-69
2023/10/24 15:48:44;;;;;;;1.83;1.40;;;12.40;99.90;;;;;;4970742;28;20248;-70
2023/10/24 15:51:11;;;;;;;1.90;1.80;;;12.30;99.90;;;;;;4971541;28;20745;-71
2023/10/24 15:53:37;;;;;;;1.40;1.30;;;12.30;99.90;;;;;;4967964;28;20212;-70
2023/10/24 15:56:05;;;;;;;1.88;1.77;;;12.30;99.90;;;;;;4970839;28;20310;-70
2023/10/24 15:58:33;;;;;;;1.20;1.08;;;12.30;99.90;;;;;;4969600;28;20234;-70
2023/10/24 16:01:10;;;;;;;1.60;1.48;;;12.30;99.90;;;;;;4973580;28;20230;-70
2023/10/24 16:03:37;;;;;;;2.30;1.20;;;12.30;99.90;;;;;;4966922;28;20222;-69
2023/10/24 16:06:04;;;;;;;2.25;1.38;;;12.20;99.90;;;;;;4965711;28;20217;-70
2023/10/24 16:08:31;;;;;;;1.95;1.63;;;12.20;99.90;;;;;;4963774;28;20210;-70
2023/10/24 16:10:58;;;;;;;1.83;1.67;;;12.20;99.90;;;;;;4962503;28;20238;-71
2023/10/24 16:13:25;;;;;;;2.28;1.77;;;12.20;99.90;;;;;;4972115;28;20203;-70
2023/10/24 16:15:53;;;;;;;1.88;1.60;;;12.20;99.90;;;;;;4964440;28;20214;-70
2023/10/24 16:18:20;;;;;;;1.50;1.40;;;12.20;99.90;;;;;;4963494;28;20214;-71
2023/10/24 16:20:47;;;;;;;1.95;1.75;;;12.20;99.90;;;;;;4957391;28;20235;-71
2023/10/24 16:23:14;;;;;;;1.60;1.50;;;12.10;99.90;;;;;;4971701;28;20232;-71